createdAt,value
2022-12-27T00:02:32.496Z,10.91
2022-12-27T00:07:34.143Z,11.07
2022-12-27T00:12:36.171Z,10.53
2022-12-27T00:17:37.786Z,10.62
2022-12-27T00:22:40.174Z,10.43
2022-12-27T00:27:41.750Z,10.56
2022-12-27T00:32:43.420Z,10.42
2022-12-27T00:37:45.078Z,10.35
2022-12-27T00:42:46.758Z,10.28
2022-12-27T00:47:49.543Z,10.40
2022-12-27T00:52:51.901Z,10.35
2022-12-27T00:57:54.413Z,10.29
2022-12-27T01:02:56.492Z,10.13
2022-12-27T01:07:59.629Z,9.98
2022-12-27T01:13:03.098Z,9.89
2022-12-27T01:18:04.722Z,9.49
2022-12-27T01:23:06.497Z,9.54
2022-12-27T01:28:08.242Z,9.56
2022-12-27T01:33:10.054Z,9.42
2022-12-27T01:38:12.049Z,9.52
2022-12-27T01:43:18.965Z,9.64
2022-12-27T01:48:24.171Z,9.58
2022-12-27T01:53:31.066Z,9.68
2022-12-27T01:58:35.635Z,9.68
2022-12-27T02:03:42.462Z,9.53
2022-12-27T02:09:01.086Z,9.57
2022-12-27T02:14:02.847Z,9.49
2022-12-27T02:19:17.604Z,9.67
2022-12-27T02:24:34.336Z,9.79
2022-12-27T02:29:50.811Z,9.89
2022-12-27T02:35:10.113Z,9.91
2022-12-27T02:40:14.747Z,9.76
2022-12-27T02:45:21.348Z,9.89
2022-12-27T02:50:23.256Z,9.76
2022-12-27T02:55:58.946Z,9.66
2022-12-27T03:01:23.840Z,9.82
2022-12-27T03:06:34.405Z,9.68
2022-12-27T03:11:48.268Z,9.66
2022-12-27T03:16:59.791Z,9.37
2022-12-27T03:22:02.697Z,9.59
2022-12-27T03:27:11.022Z,9.30
2022-12-27T03:32:15.752Z,9.23
2022-12-27T03:37:30.217Z,9.29
2022-12-27T03:42:36.093Z,9.28
2022-12-27T03:48:02.282Z,9.45
2022-12-27T03:53:25.102Z,9.44
2022-12-27T03:58:26.792Z,9.42
2022-12-27T04:03:28.477Z,9.42
2022-12-27T04:08:30.064Z,9.39
2022-12-27T04:13:31.620Z,9.38
2022-12-27T04:18:33.245Z,9.32
2022-12-27T04:23:34.892Z,9.28
2022-12-27T04:28:36.893Z,9.47
2022-12-27T04:33:38.471Z,9.44
2022-12-27T04:38:40.065Z,9.27
2022-12-27T04:43:41.811Z,9.44
2022-12-27T04:48:43.506Z,9.24
2022-12-27T04:53:45.483Z,9.37
2022-12-27T04:58:46.980Z,9.17
2022-12-27T05:03:50.651Z,9.21
2022-12-27T05:08:52.335Z,9.20
2022-12-27T05:13:53.954Z,9.25
2022-12-27T05:18:55.741Z,9.25
2022-12-27T05:24:03.351Z,9.27
2022-12-27T05:29:08.118Z,9.11
2022-12-27T05:34:09.748Z,8.94
2022-12-27T05:39:11.324Z,8.98
2022-12-27T05:44:12.898Z,8.61
2022-12-27T05:49:14.696Z,8.63
2022-12-27T05:54:16.467Z,8.65
2022-12-27T05:59:17.990Z,8.63
2022-12-27T06:04:19.509Z,8.42
2022-12-27T06:09:21.203Z,8.51
2022-12-27T06:14:22.730Z,8.61
2022-12-27T06:19:24.244Z,8.57
2022-12-27T06:24:25.786Z,8.81
2022-12-27T06:29:27.258Z,8.84
2022-12-27T06:34:28.792Z,8.91
2022-12-27T06:39:30.643Z,9.12
2022-12-27T06:44:32.171Z,9.16
2022-12-27T06:49:33.737Z,9.20
2022-12-27T06:54:35.334Z,9.24
2022-12-27T06:59:36.925Z,9.24
2022-12-27T07:04:38.406Z,9.19
2022-12-27T07:09:40.015Z,8.94
2022-12-27T07:14:41.564Z,8.85
2022-12-27T07:19:43.085Z,8.89
2022-12-27T07:24:44.674Z,8.90
2022-12-27T07:29:46.295Z,9.07
2022-12-27T07:34:47.820Z,9.09
2022-12-27T07:39:49.413Z,9.05
2022-12-27T07:44:50.933Z,9.01
2022-12-27T07:49:52.403Z,8.88
2022-12-27T07:54:53.907Z,8.90
2022-12-27T07:59:55.391Z,8.90
2022-12-27T08:04:57.005Z,8.91
2022-12-27T08:09:58.492Z,9.03
2022-12-27T08:15:00.011Z,9.02
2022-12-27T08:20:01.572Z,9.16
2022-12-27T08:25:03.115Z,9.06
2022-12-27T08:30:05.524Z,9.08
2022-12-27T08:35:41.803Z,9.16
2022-12-27T08:40:28.917Z,9.27
2022-12-27T08:45:30.440Z,9.24
2022-12-27T08:50:31.967Z,9.18
2022-12-27T08:55:33.766Z,9.20
2022-12-27T09:00:35.271Z,8.88
2022-12-27T09:05:41.636Z,8.83
2022-12-27T09:10:43.693Z,9.09
2022-12-27T09:15:45.296Z,9.24
2022-12-27T09:20:46.792Z,9.33
2022-12-27T09:25:48.342Z,9.03
2022-12-27T09:30:50.107Z,9.19
2022-12-27T09:35:51.842Z,9.23
2022-12-27T09:40:55.812Z,9.19
2022-12-27T09:45:58.306Z,9.44
2022-12-27T09:51:06.142Z,9.25
2022-12-27T09:56:11.733Z,9.46
2022-12-27T10:01:27.416Z,9.34
2022-12-27T10:06:57.621Z,9.22
2022-12-27T10:12:14.371Z,9.13
2022-12-27T10:17:48.077Z,9.42
2022-12-27T10:23:06.473Z,9.55
2022-12-27T10:28:23.295Z,9.65
2022-12-27T10:33:31.138Z,9.83
2022-12-27T10:38:34.516Z,9.96
2022-12-27T10:43:40.947Z,10.04
2022-12-27T10:54:27.450Z,10.26
2022-12-27T10:59:29.293Z,10.37
2022-12-27T11:04:32.357Z,11.38
2022-12-27T11:09:38.632Z,11.58
2022-12-27T11:14:59.400Z,11.06
2022-12-27T11:20:18.784Z,10.77
2022-12-27T11:25:21.447Z,10.55
2022-12-27T11:30:31.109Z,10.21
2022-12-27T11:35:33.938Z,10.25
2022-12-27T11:40:35.576Z,10.44
2022-12-27T11:45:46.759Z,10.55
2022-12-27T11:51:03.884Z,11.21
2022-12-27T11:56:30.585Z,11.25
2022-12-27T12:02:08.127Z,11.05
2022-12-27T12:07:28.624Z,10.76
2022-12-27T12:12:42.312Z,10.77
2022-12-27T12:18:08.245Z,10.75
2022-12-27T12:23:35.936Z,10.69
2022-12-27T12:28:59.087Z,10.70
2022-12-27T12:34:19.527Z,10.54
2022-12-27T12:39:39.847Z,10.50
2022-12-27T12:44:56.614Z,10.36
2022-12-27T12:50:23.936Z,10.33
2022-12-27T12:55:25.626Z,10.36
2022-12-27T13:01:05.622Z,10.51
2022-12-27T13:06:44.795Z,10.35
2022-12-27T13:12:02.172Z,10.59
2022-12-27T13:17:19.825Z,10.57
2022-12-27T13:23:07.452Z,10.62
2022-12-27T13:29:03.388Z,10.64
2022-12-27T13:34:36.445Z,10.67
2022-12-27T13:40:29.156Z,10.42
2022-12-27T13:45:48.494Z,10.37
2022-12-27T13:51:13.069Z,10.32
2022-12-27T13:56:54.101Z,10.44
2022-12-27T14:02:20.583Z,10.59
2022-12-27T14:07:25.113Z,10.48
2022-12-27T14:12:44.967Z,10.59
2022-12-27T14:18:03.747Z,10.33
2022-12-27T14:23:26.081Z,10.24
2022-12-27T14:29:00.169Z,10.33
2022-12-27T14:34:28.128Z,10.32
2022-12-27T14:39:56.921Z,10.32
2022-12-27T14:45:17.253Z,10.24
2022-12-27T14:50:34.036Z,10.14
2022-12-27T14:55:41.842Z,10.09
2022-12-27T15:01:14.190Z,10.30
2022-12-27T15:06:51.751Z,10.17
2022-12-27T15:12:23.755Z,10.15
2022-12-27T15:17:36.909Z,10.19
2022-12-27T15:22:56.174Z,10.04
2022-12-27T15:28:00.332Z,10.00
2022-12-27T15:33:13.828Z,9.87
2022-12-27T15:38:18.628Z,9.90
2022-12-27T15:43:36.276Z,9.90
2022-12-27T15:49:05.347Z,9.90
2022-12-27T15:54:27.867Z,9.93
2022-12-27T16:00:07.930Z,9.90
2022-12-27T16:05:23.016Z,9.94
2022-12-27T16:10:30.744Z,10.03
2022-12-27T16:15:39.348Z,9.86
2022-12-27T16:20:40.952Z,9.79
2022-12-27T16:25:43.266Z,9.68
2022-12-27T16:30:48.620Z,9.71
2022-12-27T16:36:04.843Z,9.74
2022-12-27T16:41:24.915Z,9.63
2022-12-27T16:46:52.081Z,9.56
2022-12-27T16:52:06.919Z,9.62
2022-12-27T16:57:37.674Z,9.53
2022-12-27T17:02:46.020Z,9.27
2022-12-27T17:07:52.988Z,9.23
2022-12-27T17:13:00.037Z,9.20
2022-12-27T17:18:16.291Z,9.19
2022-12-27T17:23:18.069Z,9.38
2022-12-27T17:28:35.580Z,9.27
2022-12-27T17:34:09.488Z,9.33
2022-12-27T17:39:13.722Z,9.07
2022-12-27T17:44:27.301Z,8.93
2022-12-27T17:49:31.116Z,8.90
2022-12-27T17:54:32.665Z,8.86
2022-12-27T17:59:34.568Z,8.73
2022-12-27T18:04:39.323Z,8.63
2022-12-27T18:09:47.098Z,8.43
2022-12-27T18:15:00.813Z,8.60
2022-12-27T18:20:28.791Z,8.62
2022-12-27T18:25:40.224Z,8.83
2022-12-27T18:30:47.637Z,8.73
2022-12-27T18:35:51.117Z,8.69
2022-12-27T18:41:02.986Z,8.43
2022-12-27T18:46:05.124Z,8.12
2022-12-27T18:51:06.836Z,7.83
2022-12-27T18:56:14.142Z,7.50
2022-12-27T19:01:32.659Z,7.61
2022-12-27T19:06:34.268Z,7.71
2022-12-27T19:11:36.797Z,7.81
2022-12-27T19:16:38.370Z,7.56
2022-12-27T19:21:39.953Z,7.47
2022-12-27T19:26:41.504Z,7.43
2022-12-27T19:31:52.874Z,7.55
2022-12-27T19:36:55.627Z,7.55
2022-12-27T19:42:01.066Z,7.40
2022-12-27T19:47:03.540Z,7.26
2022-12-27T19:52:05.485Z,7.22
2022-12-27T19:57:10.398Z,7.20
2022-12-27T20:02:12.209Z,7.16
2022-12-27T20:07:21.611Z,7.13
2022-12-27T20:12:23.209Z,6.91
2022-12-27T20:17:24.703Z,7.03
2022-12-27T20:22:26.480Z,6.93
2022-12-27T20:27:28.058Z,6.92
2022-12-27T20:32:29.645Z,6.96
2022-12-27T20:37:31.312Z,7.02
2022-12-27T20:42:33.277Z,7.20
2022-12-27T20:47:35.055Z,7.28
2022-12-27T20:52:37.139Z,7.40
2022-12-27T20:57:39.386Z,7.28
2022-12-27T21:02:40.992Z,7.27
2022-12-27T21:07:42.642Z,7.43
2022-12-27T21:12:44.207Z,7.51
2022-12-27T21:17:45.682Z,7.61
2022-12-27T21:22:47.624Z,7.79
2022-12-27T21:27:49.172Z,7.54
2022-12-27T21:32:50.777Z,7.41
2022-12-27T21:37:52.502Z,7.39
2022-12-27T21:42:54.016Z,7.32
2022-12-27T21:47:55.549Z,7.15
2022-12-27T21:52:57.074Z,7.45
2022-12-27T21:57:58.667Z,7.32
2022-12-27T22:03:00.308Z,7.24
2022-12-27T22:08:01.927Z,7.13
2022-12-27T22:13:03.439Z,7.21
2022-12-27T22:18:04.983Z,7.34
2022-12-27T22:23:06.524Z,7.41
2022-12-27T22:28:08.003Z,7.34
2022-12-27T22:33:09.507Z,7.26
2022-12-27T22:38:11.224Z,7.30
2022-12-27T22:43:12.750Z,7.38
2022-12-27T22:48:14.279Z,7.40
2022-12-27T22:53:15.786Z,7.40
2022-12-27T22:58:17.415Z,7.33
2022-12-27T23:03:19.041Z,7.33
2022-12-27T23:08:20.718Z,7.33
2022-12-27T23:13:22.322Z,7.36
2022-12-27T23:18:24.392Z,7.26
2022-12-27T23:23:26.003Z,7.39
2022-12-27T23:28:27.493Z,7.34
2022-12-27T23:33:29.081Z,7.24
2022-12-27T23:38:30.891Z,7.26
2022-12-27T23:43:51.796Z,7.21
2022-12-27T23:48:56.369Z,7.22
2022-12-27T23:53:58.085Z,7.23
2022-12-27T23:59:01.947Z,7.25
